This is the latest recevied weather packets stored in our database for station/object KE6LRO. If no packets are shown the sender has not sent any weather packets the latest 10 day(s).
| Time | Temp. | Humidity | Pressure | Rain* | Wind** | Luminosity | Snow |
|---|---|---|---|---|---|---|---|
| 1777856698 | 23.33° C | 26% | 1013.6 hPa | 0 mm | - | 97 W/m² | - |
| 1777856394 | 22.78° C | 27% | 1013.7 hPa | 0 mm | - | 111 W/m² | - |
| 1777856091 | 22.78° C | 27% | 1013.7 hPa | 0 mm | - | 123 W/m² | - |
| 1777855789 | 23.33° C | 36% | 1013.8 hPa | 0 mm | - | 126 W/m² | - |
| 1777855486 | 23.33° C | 28% | 1013.8 hPa | 0 mm | - | 147 W/m² | - |
| 1777855183 | 24.44° C | 24% | 1013.8 hPa | 0 mm | - | 156 W/m² | - |
| 1777854879 | 24.44° C | 24% | 1013.8 hPa | 0 mm | - | 178 W/m² | - |
| 1777854576 | 23.89° C | 25% | 1013.9 hPa | 0 mm | - | 187 W/m² | - |
| 1777854273 | 23.33° C | 26% | 1013.8 hPa | 0 mm | - | 199 W/m² | - |
| 1777853970 | 23.89° C | 25% | 1013.9 hPa | 0 mm | - | 211 W/m² | - |
| 1777853667 | 23.89° C | 25% | 1013.9 hPa | 0 mm | - | 224 W/m² | - |
| 1777853364 | 23.89° C | 26% | 1013.9 hPa | 0 mm | - | 235 W/m² | - |
| 1777853061 | 23.33° C | 26% | 1014.1 hPa | 0 mm | - | 253 W/m² | - |
| 1777852758 | 23.89° C | 25% | 1014.2 hPa | 0 mm | - | 265 W/m² | - |
| 1777852456 | 24.44° C | 24% | 1014.2 hPa | 0 mm | - | 274 W/m² | - |
| 1777852154 | 24.44° C | 24% | 1014.2 hPa | 0 mm | - | 293 W/m² | - |
| 1777851851 | 24.44° C | 23% | 1014.3 hPa | 0 mm | - | 313 W/m² | - |
| 1777851549 | 25° C | 24% | 1014.1 hPa | 0 mm | - | 326 W/m² | - |
| 1777851245 | 24.44° C | 24% | 1014.2 hPa | 0 mm | - | 368 W/m² | - |
| 1777850941 | 25° C | 25% | 1014.2 hPa | 0 mm | - | 388 W/m² | - |
| 1777850639 | 24.44° C | 24% | 1014.4 hPa | 0 mm | - | 391 W/m² | - |
| 1777850336 | 24.44° C | 24% | 1014.4 hPa | 0 mm | - | 391 W/m² | - |
| 1777850033 | 24.44° C | 24% | 1014.3 hPa | 0 mm | - | 90 W/m² | - |
| 1777849729 | 24.44° C | 24% | 1014.3 hPa | 0 mm | - | 141 W/m² | - |
| 1777849426 | 25° C | 23% | 1014.6 hPa | 0 mm | - | 463 W/m² | - |
* Rain latest hour (hover to see other rain measurements)
** Current wind speed in m/s (hover to see current wind gust speed)